Independence, Oregon
Current Conditions -  °F | °C
As of 5:56 PM on Sunday 21 Dec 2014 (Local Time) from KSLE Reporting Station
Overcast Overcast  
Wind Chill: 53°   Ceiling: 5000
Heat Index: 53°   Visibility: 10mi
Dew Point: 48°   Wind: 5mph
Humidity: 83%   Direction: 150°SSE
Pressure: 30.16"   Gusts: NA
Location:  44.85°N, 123.19°W
Report Text: KSLE 220156Z 15004KT 10SM BKN050 OVC075 12/09 A3016 RMK AO2 SLP214 T01170089
Loading
Personal Weather Stations






























Interactive Weather Map New forecast layout! Learn more

10-Day Weather Forecast

Advertisements
Track Severe Weather on mobile